createdAt,value
2019-06-26T00:01:12.725Z,55.77
2019-06-26T00:03:41.403Z,55.68
2019-06-26T00:06:10.088Z,55.80
2019-06-26T00:08:38.728Z,55.86
2019-06-26T00:11:07.357Z,56.26
2019-06-26T00:13:36.060Z,56.43
2019-06-26T00:16:04.743Z,56.75
2019-06-26T00:18:33.442Z,57.00
2019-06-26T00:21:02.062Z,56.72
2019-06-26T00:23:30.711Z,56.76
2019-06-26T00:25:59.345Z,56.67
2019-06-26T00:28:28.025Z,56.85
2019-06-26T00:30:56.724Z,56.85
2019-06-26T00:33:25.439Z,56.89
2019-06-26T00:35:54.044Z,56.97
2019-06-26T00:38:22.748Z,57.16
2019-06-26T00:40:51.403Z,57.17
2019-06-26T00:43:20.107Z,57.06
2019-06-26T00:45:48.737Z,57.29
2019-06-26T00:48:17.452Z,57.36
2019-06-26T00:50:46.069Z,57.79
2019-06-26T00:53:14.784Z,57.72
2019-06-26T00:55:43.499Z,57.97
2019-06-26T00:58:12.258Z,57.83
2019-06-26T01:00:49.622Z,57.88
2019-06-26T01:03:18.263Z,58.05
2019-06-26T01:05:46.877Z,58.03
2019-06-26T01:08:15.533Z,58.39
2019-06-26T01:10:44.212Z,58.75
2019-06-26T01:13:14.249Z,59.17
2019-06-26T01:15:43.044Z,59.43
2019-06-26T01:18:11.730Z,59.60
2019-06-26T01:20:40.341Z,59.84
2019-06-26T01:23:08.999Z,60.13
2019-06-26T01:25:37.688Z,60.36
2019-06-26T01:28:06.299Z,60.48
2019-06-26T01:30:35.025Z,60.24
2019-06-26T01:33:03.631Z,60.15
2019-06-26T01:35:32.275Z,59.93
2019-06-26T01:38:00.964Z,59.84
2019-06-26T01:40:30.953Z,59.84
2019-06-26T01:42:59.641Z,59.88
2019-06-26T01:45:28.255Z,59.78
2019-06-26T01:47:56.885Z,59.35
2019-06-26T01:50:26.937Z,59.36
2019-06-26T01:52:55.573Z,59.26
2019-06-26T01:55:24.194Z,59.12
2019-06-26T01:57:52.891Z,59.08
2019-06-26T02:00:21.868Z,59.00
2019-06-26T02:02:50.539Z,58.57
2019-06-26T02:05:19.143Z,58.31
2019-06-26T02:07:47.853Z,58.57
2019-06-26T02:10:16.720Z,58.57
2019-06-26T02:12:45.413Z,58.71
2019-06-26T02:15:14.137Z,58.61
2019-06-26T02:17:42.808Z,58.34
2019-06-26T02:20:11.594Z,58.77
2019-06-26T02:22:40.286Z,58.57
2019-06-26T02:25:08.994Z,58.54
2019-06-26T02:27:37.638Z,58.60
2019-06-26T02:30:07.658Z,59.45
2019-06-26T02:32:36.300Z,59.58
2019-06-26T02:35:09.933Z,59.73
2019-06-26T02:37:37.458Z,60.66
2019-06-26T02:40:09.760Z,61.55
2019-06-26T02:42:40.362Z,62.85
2019-06-26T02:45:10.143Z,63.11
2019-06-26T02:47:38.786Z,62.60
2019-06-26T02:50:12.978Z,62.16
2019-06-26T02:52:41.704Z,61.74
2019-06-26T02:55:10.531Z,61.43
2019-06-26T02:57:39.222Z,61.46
2019-06-26T03:00:08.253Z,61.69
2019-06-26T03:02:36.934Z,61.58
2019-06-26T03:05:06.951Z,61.49
2019-06-26T03:07:35.587Z,61.76
2019-06-26T03:10:06.206Z,61.85
2019-06-26T03:12:35.008Z,62.37
2019-06-26T03:15:09.489Z,62.64
2019-06-26T03:17:53.815Z,62.22
2019-06-26T03:20:08.705Z,62.33
2019-06-26T03:22:37.403Z,62.24
2019-06-26T03:25:06.719Z,62.61
2019-06-26T03:27:35.370Z,62.41
2019-06-26T03:30:05.174Z,62.45
2019-06-26T03:32:33.803Z,62.19
2019-06-26T03:35:02.510Z,62.47
2019-06-26T03:37:32.445Z,62.34
2019-06-26T03:40:01.095Z,61.75
2019-06-26T03:42:29.850Z,61.37
2019-06-26T03:44:58.466Z,60.84
2019-06-26T03:47:27.091Z,60.64
2019-06-26T03:49:55.773Z,60.27
2019-06-26T03:52:24.469Z,60.05
2019-06-26T03:54:53.076Z,60.37
2019-06-26T03:57:21.715Z,59.71
2019-06-26T03:59:50.328Z,59.29
2019-06-26T04:02:18.953Z,58.91
2019-06-26T04:04:47.632Z,59.14
2019-06-26T04:07:17.754Z,58.55
2019-06-26T04:09:48.699Z,59.14
2019-06-26T04:12:17.386Z,59.25
2019-06-26T04:14:46.014Z,59.05
2019-06-26T04:17:14.696Z,58.86
2019-06-26T04:19:43.414Z,58.51
2019-06-26T04:22:13.338Z,57.78
2019-06-26T04:24:42.043Z,57.30
2019-06-26T04:27:10.720Z,57.10
2019-06-26T04:29:39.343Z,56.50
2019-06-26T04:32:08.024Z,56.00
2019-06-26T04:34:36.694Z,55.42
2019-06-26T04:37:05.381Z,54.98
2019-06-26T04:39:34.022Z,55.73
2019-06-26T04:42:02.705Z,55.55
2019-06-26T04:44:31.353Z,55.34
2019-06-26T04:47:00.045Z,55.37
2019-06-26T04:49:28.493Z,55.29
2019-06-26T04:51:57.214Z,55.46
2019-06-26T04:54:25.846Z,55.50
2019-06-26T04:56:54.492Z,54.82
2019-06-26T04:59:23.141Z,54.45
2019-06-26T05:01:51.829Z,54.27
2019-06-26T05:04:21.881Z,53.67
2019-06-26T05:06:50.603Z,53.71
2019-06-26T05:09:20.763Z,53.52
2019-06-26T05:11:49.553Z,53.15
2019-06-26T05:14:18.245Z,53.22
2019-06-26T05:16:46.870Z,52.83
2019-06-26T05:19:15.493Z,52.51
2019-06-26T05:21:44.165Z,52.96
2019-06-26T05:24:12.817Z,52.54
2019-06-26T05:26:41.463Z,52.78
2019-06-26T05:29:10.126Z,52.03
2019-06-26T05:31:38.824Z,52.97
2019-06-26T05:34:10.679Z,51.03
2019-06-26T05:36:39.478Z,51.05
2019-06-26T05:39:08.304Z,51.22
2019-06-26T05:41:36.922Z,51.06
2019-06-26T05:44:05.958Z,50.92
2019-06-26T05:46:34.580Z,50.53
2019-06-26T05:49:03.196Z,49.74
2019-06-26T05:51:32.678Z,49.65
2019-06-26T05:54:01.373Z,48.87
2019-06-26T05:56:29.986Z,48.98
2019-06-26T05:59:00.068Z,48.38
2019-06-26T06:01:28.763Z,48.62
2019-06-26T06:03:57.443Z,48.40
2019-06-26T06:06:40.594Z,47.21
2019-06-26T06:08:56.468Z,47.45
2019-06-26T06:11:25.759Z,47.21
2019-06-26T06:13:54.463Z,46.76
2019-06-26T06:16:23.161Z,45.22
2019-06-26T06:18:51.818Z,46.41
2019-06-26T06:21:20.552Z,45.48
2019-06-26T06:23:49.274Z,45.69
2019-06-26T06:26:17.919Z,47.02
2019-06-26T06:28:46.599Z,45.66
2019-06-26T06:31:15.249Z,44.62
2019-06-26T06:33:43.861Z,44.01
2019-06-26T06:36:12.512Z,43.92
2019-06-26T06:38:41.153Z,44.94
2019-06-26T06:41:09.772Z,45.18
2019-06-26T06:43:38.482Z,45.76
2019-06-26T06:46:09.630Z,45.14
2019-06-26T06:48:38.360Z,43.03
2019-06-26T06:51:07.049Z,42.72
2019-06-26T06:53:35.711Z,43.32
2019-06-26T06:56:04.396Z,42.64
2019-06-26T06:58:33.057Z,42.87
2019-06-26T07:01:01.756Z,42.98
2019-06-26T07:03:30.377Z,43.14
2019-06-26T07:06:00.442Z,42.94
2019-06-26T07:08:29.096Z,43.00
2019-06-26T07:10:59.350Z,45.11
2019-06-26T07:13:27.996Z,44.48
2019-06-26T07:15:59.679Z,44.29
2019-06-26T07:18:28.292Z,43.36
2019-06-26T07:20:57.049Z,42.61
2019-06-26T07:23:25.734Z,42.93
2019-06-26T07:25:54.421Z,43.15
2019-06-26T07:28:23.109Z,42.45
2019-06-26T07:30:51.905Z,42.82
2019-06-26T07:33:21.978Z,42.10
2019-06-26T07:35:50.666Z,42.45
2019-06-26T07:38:19.389Z,42.33
2019-06-26T07:40:48.072Z,42.55
2019-06-26T07:43:16.909Z,43.54
2019-06-26T07:45:45.553Z,43.11
2019-06-26T07:48:14.268Z,42.87
2019-06-26T07:50:42.986Z,42.54
2019-06-26T07:53:12.041Z,41.24
2019-06-26T07:55:40.793Z,42.11
2019-06-26T07:58:09.474Z,41.39
2019-06-26T08:00:38.126Z,41.18
2019-06-26T08:03:06.737Z,42.02
2019-06-26T08:05:35.538Z,42.93
2019-06-26T08:08:06.884Z,44.75
2019-06-26T08:10:35.495Z,45.10
2019-06-26T08:13:04.127Z,44.12
2019-06-26T08:15:32.797Z,44.17
2019-06-26T08:18:01.732Z,41.90
2019-06-26T08:20:30.516Z,41.86
2019-06-26T08:22:59.129Z,40.76
2019-06-26T08:25:27.776Z,41.85
2019-06-26T08:27:56.459Z,40.41
2019-06-26T08:30:25.850Z,40.13
2019-06-26T08:32:54.474Z,38.86
2019-06-26T08:35:23.123Z,40.24
2019-06-26T08:38:08.646Z,38.87
2019-06-26T08:40:22.204Z,39.29
2019-06-26T08:42:50.922Z,40.06
2019-06-26T08:45:20.052Z,40.61
2019-06-26T08:47:50.124Z,40.56
2019-06-26T08:50:19.220Z,40.64
2019-06-26T08:52:49.380Z,39.35
2019-06-26T08:55:19.195Z,39.12
2019-06-26T08:57:47.872Z,38.21
2019-06-26T09:00:16.607Z,38.77
2019-06-26T09:02:45.327Z,36.65
2019-06-26T09:05:14.651Z,35.71
2019-06-26T09:07:43.362Z,36.67
2019-06-26T09:10:13.443Z,38.02
2019-06-26T09:12:42.165Z,36.29
2019-06-26T09:15:11.803Z,35.30
2019-06-26T09:17:43.505Z,35.91
2019-06-26T09:20:12.434Z,36.28
2019-06-26T09:22:41.254Z,37.14
2019-06-26T09:25:21.511Z,36.76
2019-06-26T09:27:41.924Z,36.98
2019-06-26T09:30:10.840Z,36.51
2019-06-26T09:32:39.519Z,37.05
2019-06-26T09:35:08.407Z,37.25
2019-06-26T09:37:37.302Z,36.70
2019-06-26T09:40:06.695Z,36.18
2019-06-26T09:42:35.372Z,34.98
2019-06-26T09:45:05.652Z,35.20
2019-06-26T09:47:34.363Z,35.65
2019-06-26T09:50:04.060Z,35.88
2019-06-26T09:52:32.762Z,36.30
2019-06-26T09:55:01.777Z,36.58
2019-06-26T09:57:30.574Z,36.20
2019-06-26T09:59:59.211Z,36.17
2019-06-26T10:02:27.883Z,35.83
2019-06-26T10:04:56.608Z,36.41
2019-06-26T10:07:29.067Z,35.65
2019-06-26T10:09:57.688Z,35.15
2019-06-26T10:12:26.322Z,35.24
2019-06-26T10:14:55.034Z,34.14
2019-06-26T10:17:23.767Z,33.06
2019-06-26T10:19:54.298Z,32.33
2019-06-26T10:22:22.910Z,32.64
2019-06-26T10:24:51.524Z,32.43
2019-06-26T10:27:20.214Z,32.04
2019-06-26T10:29:48.928Z,31.94
2019-06-26T10:32:18.237Z,32.24
2019-06-26T10:34:46.922Z,31.91
2019-06-26T10:37:15.562Z,31.17
2019-06-26T10:39:44.242Z,30.55
2019-06-26T10:42:12.947Z,29.98
2019-06-26T10:44:41.615Z,30.77
2019-06-26T10:47:10.729Z,30.52
2019-06-26T10:49:39.570Z,31.36
2019-06-26T10:52:08.201Z,29.76
2019-06-26T10:54:36.910Z,30.84
2019-06-26T10:57:05.625Z,29.72
2019-06-26T10:59:34.307Z,30.03
2019-06-26T11:02:03.130Z,29.69
2019-06-26T11:04:31.811Z,28.98
2019-06-26T11:07:00.466Z,28.75
2019-06-26T11:09:29.237Z,28.61
2019-06-26T11:11:57.965Z,28.54
2019-06-26T11:14:26.651Z,28.68
2019-06-26T11:16:56.442Z,29.14
2019-06-26T11:19:25.117Z,29.21
2019-06-26T11:21:53.823Z,28.58
2019-06-26T11:24:22.434Z,27.78
2019-06-26T11:26:58.794Z,28.74
2019-06-26T11:29:27.404Z,29.38
2019-06-26T11:31:56.420Z,29.10
2019-06-26T11:34:25.210Z,27.81
2019-06-26T11:37:03.589Z,28.25
2019-06-26T11:39:24.363Z,28.42
2019-06-26T11:41:53.041Z,28.81
2019-06-26T11:44:21.713Z,28.07
2019-06-26T11:46:50.666Z,28.17
2019-06-26T11:49:19.297Z,28.06
2019-06-26T11:51:47.915Z,28.62
2019-06-26T11:54:16.584Z,29.01
2019-06-26T11:56:45.334Z,29.27
2019-06-26T11:59:13.971Z,28.48
2019-06-26T12:01:42.706Z,28.79
2019-06-26T12:04:11.362Z,29.56
2019-06-26T12:06:39.996Z,27.27
2019-06-26T12:09:08.992Z,28.08
2019-06-26T12:11:37.628Z,29.04
2019-06-26T12:14:06.268Z,29.95
2019-06-26T12:16:34.886Z,29.40
2019-06-26T12:19:03.593Z,29.01
2019-06-26T12:21:32.286Z,29.10
2019-06-26T12:24:00.968Z,28.83
2019-06-26T12:26:31.060Z,28.50
2019-06-26T12:28:59.732Z,27.96
2019-06-26T12:31:28.370Z,27.58
2019-06-26T12:33:57.997Z,28.70
2019-06-26T12:36:26.721Z,29.09
2019-06-26T12:38:55.326Z,29.40
2019-06-26T12:41:23.970Z,28.27
2019-06-26T12:43:52.691Z,28.14
2019-06-26T12:46:21.298Z,28.12
2019-06-26T12:48:50.021Z,27.60
2019-06-26T12:51:18.707Z,28.90
2019-06-26T12:53:47.312Z,28.01
2019-06-26T12:56:15.958Z,29.69
2019-06-26T12:58:44.583Z,30.68
2019-06-26T13:01:13.266Z,30.02
2019-06-26T13:03:41.905Z,30.25
2019-06-26T13:06:14.681Z,29.80
2019-06-26T13:08:43.338Z,30.00
2019-06-26T13:11:12.059Z,28.69
2019-06-26T13:13:42.332Z,30.16
2019-06-26T13:16:11.016Z,29.63
2019-06-26T13:18:41.159Z,29.59
2019-06-26T13:21:09.915Z,29.80
2019-06-26T13:23:40.075Z,29.41
2019-06-26T13:26:08.761Z,29.03
2019-06-26T13:28:42.160Z,28.61
2019-06-26T13:31:10.789Z,28.95
2019-06-26T13:33:39.508Z,28.38
2019-06-26T13:36:08.209Z,28.50
2019-06-26T13:38:39.116Z,29.59
2019-06-26T13:41:07.813Z,29.29
2019-06-26T13:43:36.446Z,30.24
2019-06-26T13:46:05.125Z,29.51
2019-06-26T13:48:33.816Z,28.73
2019-06-26T13:51:09.253Z,29.99
2019-06-26T13:53:32.826Z,29.11
2019-06-26T13:56:01.670Z,29.09
2019-06-26T13:58:30.320Z,30.32
2019-06-26T14:01:01.788Z,28.68
2019-06-26T14:03:30.432Z,27.73
2019-06-26T14:05:59.099Z,28.05
2019-06-26T14:08:28.215Z,29.45
2019-06-26T14:10:56.879Z,28.85
2019-06-26T14:13:25.503Z,27.84
2019-06-26T14:15:54.120Z,28.84
2019-06-26T14:18:22.732Z,29.03
2019-06-26T14:20:51.427Z,29.30
2019-06-26T14:23:20.039Z,28.90
2019-06-26T14:25:49.812Z,29.72
2019-06-26T14:28:19.727Z,30.02
2019-06-26T14:30:48.595Z,30.71
2019-06-26T14:33:17.172Z,30.71
2019-06-26T14:35:45.793Z,30.07
2019-06-26T14:38:14.501Z,30.23
2019-06-26T14:40:43.112Z,30.29
2019-06-26T14:43:15.606Z,30.91
2019-06-26T14:45:44.294Z,30.76
2019-06-26T14:48:12.977Z,31.81
2019-06-26T14:50:41.961Z,31.40
2019-06-26T14:53:10.696Z,31.41
2019-06-26T14:55:39.880Z,31.89
2019-06-26T14:58:08.589Z,32.28
2019-06-26T15:00:37.281Z,32.25
2019-06-26T15:03:05.963Z,31.89
2019-06-26T15:05:34.627Z,31.89
2019-06-26T15:08:04.778Z,31.80
2019-06-26T15:10:33.387Z,31.69
2019-06-26T15:13:02.144Z,32.58
2019-06-26T15:15:30.831Z,32.83
2019-06-26T15:18:02.437Z,32.04
2019-06-26T15:20:38.593Z,33.23
2019-06-26T15:23:07.401Z,34.29
2019-06-26T15:25:36.039Z,34.99
2019-06-26T15:28:04.758Z,35.20
2019-06-26T15:30:33.478Z,34.50
2019-06-26T15:33:02.163Z,34.11
2019-06-26T15:35:30.868Z,35.22
2019-06-26T15:37:59.555Z,34.82
2019-06-26T15:40:28.283Z,35.23
2019-06-26T15:42:56.932Z,34.55
2019-06-26T15:45:25.666Z,35.48
2019-06-26T15:47:54.295Z,35.03
2019-06-26T15:50:22.987Z,35.22
2019-06-26T15:52:51.599Z,34.83
2019-06-26T15:55:21.771Z,35.07
2019-06-26T15:57:51.897Z,35.39
2019-06-26T16:00:20.697Z,34.59
2019-06-26T16:02:49.342Z,33.90
2019-06-26T16:05:18.358Z,34.58
2019-06-26T16:07:47.070Z,34.90
2019-06-26T16:10:15.803Z,34.12
2019-06-26T16:12:46.102Z,33.13
2019-06-26T16:15:14.885Z,33.16
2019-06-26T16:17:50.976Z,33.63
2019-06-26T16:20:20.369Z,34.17
2019-06-26T16:22:49.072Z,34.69
2019-06-26T16:25:20.588Z,34.07
2019-06-26T16:28:04.252Z,33.90
2019-06-26T16:30:19.839Z,34.26
2019-06-26T16:32:48.554Z,33.65
2019-06-26T16:35:17.588Z,34.75
2019-06-26T16:37:46.206Z,34.49
2019-06-26T16:40:15.352Z,35.01
2019-06-26T16:42:43.979Z,34.94
2019-06-26T16:45:12.761Z,35.07
2019-06-26T16:47:41.448Z,35.97
2019-06-26T16:50:13.477Z,34.73
2019-06-26T16:52:49.634Z,35.54
2019-06-26T16:55:15.368Z,35.45
2019-06-26T16:57:44.191Z,35.53
2019-06-26T17:00:12.973Z,35.61
2019-06-26T17:02:41.793Z,35.00
2019-06-26T17:05:12.044Z,35.52
2019-06-26T17:07:40.705Z,35.81
2019-06-26T17:10:11.938Z,35.50
2019-06-26T17:12:40.657Z,35.54
2019-06-26T17:15:12.611Z,35.91
2019-06-26T17:17:41.296Z,35.93
2019-06-26T17:20:10.371Z,36.40
2019-06-26T17:22:39.113Z,36.70
2019-06-26T17:25:08.334Z,37.35
2019-06-26T17:27:39.899Z,37.00
2019-06-26T17:30:09.913Z,37.06
2019-06-26T17:32:38.594Z,37.57
2019-06-26T17:35:09.171Z,37.75
2019-06-26T17:37:37.868Z,37.56
2019-06-26T17:40:07.380Z,37.56
2019-06-26T17:42:36.097Z,38.12
2019-06-26T17:45:08.779Z,38.57
2019-06-26T17:47:38.493Z,38.56
2019-06-26T17:50:08.647Z,38.48
2019-06-26T17:52:38.533Z,37.98
2019-06-26T17:55:08.886Z,38.32
2019-06-26T17:57:37.748Z,38.12
2019-06-26T18:00:08.160Z,38.42
2019-06-26T18:02:36.880Z,38.41
2019-06-26T18:05:07.625Z,38.31
2019-06-26T18:07:36.333Z,37.82
2019-06-26T18:10:06.348Z,37.87
2019-06-26T18:12:35.044Z,39.06
2019-06-26T18:15:04.683Z,40.16
2019-06-26T18:20:07.154Z,41.14
2019-06-26T18:22:35.915Z,41.07
2019-06-26T18:25:06.275Z,41.29
2019-06-26T18:27:35.022Z,42.08
2019-06-26T18:30:05.319Z,42.44
2019-06-26T18:32:34.312Z,42.34
2019-06-26T18:35:03.125Z,42.32
2019-06-26T18:37:31.723Z,42.51
2019-06-26T18:40:00.340Z,43.36
2019-06-26T18:42:29.066Z,43.44
2019-06-26T18:44:59.337Z,44.31
2019-06-26T18:47:28.025Z,43.80
2019-06-26T18:49:56.737Z,43.97
2019-06-26T18:52:25.426Z,43.55
2019-06-26T18:54:54.077Z,44.00
2019-06-26T18:57:22.695Z,43.85
2019-06-26T18:59:52.589Z,44.79
2019-06-26T19:02:21.198Z,45.06
2019-06-26T19:04:54.205Z,45.65
2019-06-26T19:07:23.038Z,45.40
2019-06-26T19:09:51.761Z,45.71
2019-06-26T19:12:20.457Z,46.03
2019-06-26T19:14:49.062Z,46.27
2019-06-26T19:17:17.707Z,46.30
2019-06-26T19:19:46.390Z,45.84
2019-06-26T19:22:15.182Z,46.29
2019-06-26T19:24:43.820Z,46.19
2019-06-26T19:27:12.467Z,46.05
2019-06-26T19:29:41.151Z,45.48
2019-06-26T19:32:11.278Z,45.96
2019-06-26T19:34:39.975Z,45.82
2019-06-26T19:37:08.695Z,45.45
2019-06-26T19:39:38.231Z,45.43
2019-06-26T19:42:06.946Z,45.58
2019-06-26T19:44:35.631Z,45.53
2019-06-26T19:47:04.349Z,46.15
2019-06-26T19:49:32.966Z,45.86
2019-06-26T19:52:01.602Z,45.58
2019-06-26T19:54:32.356Z,45.17
2019-06-26T19:57:00.702Z,45.29
2019-06-26T19:59:29.317Z,45.07
2019-06-26T20:01:57.997Z,45.39
2019-06-26T20:04:26.608Z,46.15
2019-06-26T20:06:55.230Z,46.13
2019-06-26T20:09:27.416Z,45.71
2019-06-26T20:11:56.335Z,45.44
2019-06-26T20:14:26.522Z,45.74
2019-06-26T20:16:55.133Z,45.84
2019-06-26T20:19:23.865Z,45.62
2019-06-26T20:21:56.059Z,46.06
2019-06-26T20:24:25.025Z,46.32
2019-06-26T20:26:53.715Z,46.66
2019-06-26T20:29:24.491Z,46.50
2019-06-26T20:31:52.792Z,47.04
2019-06-26T20:34:21.475Z,47.12
2019-06-26T20:36:50.123Z,47.38
2019-06-26T20:39:22.674Z,47.44
2019-06-26T20:41:52.299Z,47.29
2019-06-26T20:44:20.968Z,48.03
2019-06-26T20:46:49.633Z,48.28
2019-06-26T20:49:18.277Z,48.01
2019-06-26T20:51:46.941Z,48.23
2019-06-26T20:54:15.661Z,48.52
2019-06-26T20:56:44.674Z,48.46
2019-06-26T20:59:13.351Z,48.99
2019-06-26T21:01:42.062Z,49.12
2019-06-26T21:04:10.670Z,49.45
2019-06-26T21:06:40.367Z,48.62
2019-06-26T21:09:09.318Z,49.58
2019-06-26T21:11:37.950Z,49.47
2019-06-26T21:14:06.569Z,49.52
2019-06-26T21:16:35.205Z,50.11
2019-06-26T21:19:03.831Z,49.71
2019-06-26T21:21:32.465Z,50.16
2019-06-26T21:24:01.185Z,50.29
2019-06-26T21:26:29.816Z,50.07
2019-06-26T21:29:00.781Z,50.61
2019-06-26T21:31:29.127Z,50.58
2019-06-26T21:33:57.843Z,51.39
2019-06-26T21:36:26.518Z,50.95
2019-06-26T21:38:55.162Z,50.80
2019-06-26T21:41:23.898Z,51.88
2019-06-26T21:43:52.480Z,52.57
2019-06-26T21:46:21.193Z,52.22
2019-06-26T21:48:49.804Z,51.68
2019-06-26T21:51:18.446Z,51.09
2019-06-26T21:53:47.084Z,51.25
2019-06-26T21:56:15.697Z,51.57
2019-06-26T21:58:44.425Z,51.94
2019-06-26T22:01:13.109Z,51.80
2019-06-26T22:03:44.654Z,51.94
2019-06-26T22:06:12.547Z,52.31
2019-06-26T22:08:45.321Z,52.16
2019-06-26T22:11:13.550Z,52.41
2019-06-26T22:13:42.191Z,51.97
2019-06-26T22:16:10.815Z,51.94
2019-06-26T22:18:41.161Z,52.16
2019-06-26T22:21:09.863Z,52.14
2019-06-26T22:23:40.536Z,52.02
2019-06-26T22:26:09.101Z,52.91
2019-06-26T22:28:37.781Z,52.39
2019-06-26T22:31:06.928Z,52.44
2019-06-26T22:33:35.586Z,52.36
2019-06-26T22:36:06.335Z,51.99
2019-06-26T22:38:35.471Z,52.05
2019-06-26T22:41:04.119Z,51.82
2019-06-26T22:43:32.586Z,52.48
2019-06-26T22:46:01.758Z,52.48
2019-06-26T22:48:30.369Z,53.04
2019-06-26T22:50:59.013Z,53.18
2019-06-26T22:53:27.663Z,53.47
2019-06-26T22:56:07.027Z,53.17
2019-06-26T22:58:26.712Z,53.60
2019-06-26T23:00:55.401Z,52.90
2019-06-26T23:03:29.121Z,53.27
2019-06-26T23:05:56.707Z,53.23
2019-06-26T23:08:25.422Z,53.18
2019-06-26T23:10:54.037Z,53.16
2019-06-26T23:13:22.672Z,53.60
2019-06-26T23:15:51.867Z,53.47
2019-06-26T23:18:20.559Z,54.20
2019-06-26T23:20:49.185Z,53.77
2019-06-26T23:23:19.277Z,54.16
2019-06-26T23:25:47.889Z,53.91
2019-06-26T23:28:16.533Z,53.64
2019-06-26T23:30:45.216Z,53.70
2019-06-26T23:33:13.847Z,53.94
2019-06-26T23:35:42.466Z,53.70
2019-06-26T23:38:11.114Z,53.89
2019-06-26T23:40:39.801Z,54.39
2019-06-26T23:43:08.495Z,54.22
2019-06-26T23:45:37.122Z,53.58
2019-06-26T23:48:05.842Z,53.96
2019-06-26T23:50:34.473Z,54.17
2019-06-26T23:53:03.155Z,53.54
2019-06-26T23:55:31.750Z,53.52
2019-06-26T23:58:00.400Z,53.77
